Time;durP1;ratioP1;P1;durP2;ratioP2;P2;SDS_P1;SDS_P2;PMS_P1;PMS_P2;Temp;Humidity;BMP_temperature;BMP_pressure;BME280_temperature;BME280_humidity;BME280_pressure;Samples;Min_cycle;Max_cycle;Signal;HPM_P1;HPM_P2
2023/07/19 00:00:41;;;;;;;4.73;4.03;;;15.70;99.90;;;;;;4993695;28;20634;-56
2023/07/19 00:03:07;;;;;;;6.00;4.60;;;15.70;99.90;;;;;;4993711;28;20183;-56
2023/07/19 00:05:33;;;;;;;5.23;4.13;;;15.70;1.00;;;;;;4993185;28;20514;-55
2023/07/19 00:08:00;;;;;;;5.20;4.57;;;15.70;1.00;;;;;;4993020;28;20183;-56
2023/07/19 00:10:25;;;;;;;6.83;4.70;;;15.60;99.90;;;;;;4993251;28;20474;-56
2023/07/19 00:12:51;;;;;;;4.37;3.97;;;15.60;1.00;;;;;;4993238;28;20411;-55
2023/07/19 00:15:17;;;;;;;4.33;3.93;;;15.60;1.00;;;;;;4993426;28;20237;-55
2023/07/19 00:17:44;;;;;;;6.27;4.07;;;15.60;1.00;;;;;;4993185;28;20208;-55
2023/07/19 00:20:10;;;;;;;4.70;4.20;;;15.60;43.80;;;;;;4993249;28;20875;-56
2023/07/19 00:22:36;;;;;;;5.73;4.40;;;15.60;1.00;;;;;;4993084;28;20417;-56
2023/07/19 00:25:02;;;;;;;6.17;3.83;;;15.60;1.00;;;;;;4993049;28;20418;-57
2023/07/19 00:27:27;;;;;;;5.30;4.40;;;15.60;99.90;;;;;;4993046;28;20188;-57
2023/07/19 00:29:53;;;;;;;4.70;3.93;;;15.50;99.90;;;;;;4992844;28;20569;-55
2023/07/19 00:32:18;;;;;;;5.37;4.83;;;15.50;99.90;;;;;;4992967;28;20505;-55
2023/07/19 00:34:44;;;;;;;5.47;4.33;;;15.50;99.90;;;;;;4992730;28;20184;-56
2023/07/19 00:37:10;;;;;;;7.27;4.27;;;15.50;99.90;;;;;;4992567;28;20624;-55
2023/07/19 00:39:35;;;;;;;4.30;3.90;;;15.50;1.00;;;;;;4992850;28;20187;-55
2023/07/19 00:42:01;;;;;;;5.20;4.17;;;15.50;1.00;;;;;;4993064;28;20270;-55
2023/07/19 00:44:26;;;;;;;6.50;4.80;;;15.50;99.90;;;;;;4993178;28;20180;-55
2023/07/19 00:46:52;;;;;;;7.43;4.00;;;15.50;99.90;;;;;;4992447;28;20191;-57
2023/07/19 00:49:18;;;;;;;5.07;3.77;;;15.50;59.50;;;;;;4993005;28;20526;-56
2023/07/19 00:51:44;;;;;;;4.10;3.70;;;15.60;99.90;;;;;;4992301;28;20466;-57
2023/07/19 00:54:10;;;;;;;5.50;4.57;;;15.60;1.00;;;;;;4991169;28;20695;-55
2023/07/19 00:56:36;;;;;;;6.50;4.20;;;15.60;1.00;;;;;;4992664;28;20269;-56
2023/07/19 00:59:02;;;;;;;5.37;4.80;;;15.60;99.90;;;;;;4992636;28;20261;-54
2023/07/19 01:01:28;;;;;;;4.87;4.43;;;15.60;99.90;;;;;;4992602;28;20415;-55
2023/07/19 01:03:54;;;;;;;5.30;4.57;;;15.60;1.00;;;;;;4992732;28;20429;-57
2023/07/19 01:06:19;;;;;;;7.63;4.50;;;15.50;99.90;;;;;;4992280;28;20697;-55
2023/07/19 01:08:47;;;;;;;4.60;4.10;;;15.50;99.90;;;;;;4992622;28;20214;-55
2023/07/19 01:11:13;;;;;;;7.90;4.40;;;15.50;1.00;;;;;;4992353;28;20305;-55
2023/07/19 01:13:53;;;;;;;6.90;4.80;;;15.50;1.00;;;;;;4992707;28;20516;-55
2023/07/19 01:16:19;;;;;;;5.40;4.60;;;15.50;99.90;;;;;;4992719;28;20211;-55
2023/07/19 01:18:45;;;;;;;4.93;4.37;;;15.50;99.90;;;;;;4992414;28;20501;-55
2023/07/19 01:21:10;;;;;;;7.83;4.10;;;15.50;99.90;;;;;;4992636;28;20742;-55
2023/07/19 01:23:36;;;;;;;6.13;4.60;;;15.40;99.90;;;;;;4992105;28;20450;-55
2023/07/19 01:26:03;;;;;;;5.67;4.70;;;15.40;99.90;;;;;;4992208;28;20255;-56
2023/07/19 01:28:28;;;;;;;4.50;4.10;;;15.50;1.00;;;;;;4991705;28;20199;-55
2023/07/19 01:30:54;;;;;;;5.13;3.97;;;15.40;1.00;;;;;;4991939;28;20462;-56
2023/07/19 01:33:19;;;;;;;7.10;4.83;;;15.40;1.00;;;;;;4992335;28;20183;-56
2023/07/19 01:35:45;;;;;;;6.93;4.00;;;15.40;99.90;;;;;;4991748;28;20219;-56
2023/07/19 01:38:11;;;;;;;7.03;4.63;;;15.40;99.90;;;;;;4992017;28;20184;-56
2023/07/19 01:40:36;;;;;;;6.47;4.80;;;15.40;99.90;;;;;;4992085;28;20243;-55
2023/07/19 01:43:02;;;;;;;7.33;5.07;;;15.40;38.50;;;;;;4991744;28;20270;-56
2023/07/19 01:45:27;;;;;;;6.07;4.60;;;15.50;99.90;;;;;;4990499;28;20240;-55
2023/07/19 01:47:53;;;;;;;7.33;4.87;;;15.50;99.90;;;;;;4991834;28;20195;-56
2023/07/19 01:50:19;;;;;;;5.87;4.37;;;15.50;1.00;;;;;;4991410;28;20215;-56
2023/07/19 01:52:44;;;;;;;5.87;4.13;;;15.50;1.00;;;;;;4991753;28;20188;-56
2023/07/19 01:55:10;;;;;;;5.73;4.77;;;15.50;1.00;;;;;;4991282;28;20245;-56
2023/07/19 01:57:36;;;;;;;5.73;4.30;;;15.40;1.00;;;;;;4991674;28;20183;-56
2023/07/19 02:00:03;;;;;;;9.53;4.87;;;15.40;1.00;;;;;;4991848;28;20192;-56
2023/07/19 02:02:29;;;;;;;5.50;4.20;;;15.40;1.00;;;;;;4991756;28;20731;-55
2023/07/19 02:04:54;;;;;;;12.40;4.90;;;15.40;1.00;;;;;;4992508;28;20531;-55
2023/07/19 02:07:20;;;;;;;9.47;5.17;;;15.40;1.00;;;;;;4994853;28;20582;-57
2023/07/19 02:09:46;;;;;;;6.13;5.13;;;15.40;99.90;;;;;;4994749;28;20186;-55
2023/07/19 02:12:12;;;;;;;9.57;4.70;;;15.40;55.90;;;;;;4994952;28;20190;-57
2023/07/19 02:14:37;;;;;;;6.70;4.67;;;15.40;6.60;;;;;;4995239;28;20559;-56
2023/07/19 02:17:03;;;;;;;8.20;4.90;;;15.40;99.90;;;;;;4994709;28;20209;-55
2023/07/19 02:19:29;;;;;;;6.43;4.40;;;15.40;1.00;;;;;;4994715;28;20648;-56
2023/07/19 02:21:54;;;;;;;9.97;4.87;;;15.40;1.00;;;;;;4995025;28;20216;-55
2023/07/19 02:24:20;;;;;;;5.63;4.13;;;15.40;99.90;;;;;;4994900;28;20286;-56
2023/07/19 02:26:46;;;;;;;14.70;5.27;;;15.30;1.00;;;;;;4995014;28;20605;-56
2023/07/19 02:29:11;;;;;;;6.50;4.50;;;15.30;1.00;;;;;;4995154;28;20691;-55
2023/07/19 02:31:37;;;;;;;4.90;4.00;;;15.30;99.90;;;;;;4994381;28;20219;-55
2023/07/19 02:34:06;;;;;;;9.20;3.90;;;15.30;99.90;;;;;;4994756;28;20193;-54
2023/07/19 02:36:33;;;;;;;7.60;4.73;;;15.30;1.00;;;;;;4994773;28;20461;-55
2023/07/19 02:39:00;;;;;;;4.93;3.80;;;15.20;1.00;;;;;;4994937;28;20423;-55
2023/07/19 02:41:26;;;;;;;5.30;4.00;;;15.30;99.90;;;;;;4994749;28;20763;-56
2023/07/19 02:43:51;;;;;;;4.37;3.90;;;15.20;46.50;;;;;;4994794;28;20429;-55
2023/07/19 02:46:17;;;;;;;10.10;4.20;;;15.20;1.00;;;;;;4994905;28;20526;-55
2023/07/19 02:48:43;;;;;;;4.03;3.43;;;15.20;1.00;;;;;;4994626;28;20172;-55
2023/07/19 02:51:08;;;;;;;5.03;3.40;;;15.20;99.90;;;;;;4994708;28;20217;-56
2023/07/19 02:53:35;;;;;;;6.60;3.40;;;15.20;99.90;;;;;;4994210;28;20419;-54
2023/07/19 02:56:01;;;;;;;5.17;3.53;;;15.10;99.90;;;;;;4994615;28;20243;-53
2023/07/19 02:58:27;;;;;;;5.53;4.07;;;15.10;99.90;;;;;;4994194;28;20477;-55
2023/07/19 03:00:53;;;;;;;3.53;3.23;;;15.10;1.00;;;;;;4994557;28;20257;-56
2023/07/19 03:03:19;;;;;;;3.47;3.23;;;15.10;1.00;;;;;;4994653;28;20423;-56
2023/07/19 03:05:45;;;;;;;8.37;3.70;;;15.10;1.00;;;;;;4994129;28;20430;-55
2023/07/19 03:08:11;;;;;;;5.73;3.30;;;15.00;99.90;;;;;;4993914;28;20215;-54
2023/07/19 03:10:37;;;;;;;8.43;3.30;;;15.00;99.90;;;;;;4994101;28;20228;-55
2023/07/19 03:13:03;;;;;;;8.70;3.10;;;15.00;1.00;;;;;;4993762;28;20789;-55
2023/07/19 03:15:33;;;;;;;10.57;3.53;;;15.00;99.90;;;;;;4994164;28;20464;-55
2023/07/19 03:18:02;;;;;;;6.27;3.60;;;15.00;1.00;;;;;;4992980;28;20411;-56
2023/07/19 03:20:28;;;;;;;3.83;3.13;;;14.90;99.90;;;;;;4993892;28;20944;-55
2023/07/19 03:22:57;;;;;;;6.17;3.57;;;14.90;1.00;;;;;;4994194;28;20419;-56
2023/07/19 03:25:24;;;;;;;5.60;3.60;;;14.80;99.90;;;;;;4994052;28;20203;-56
2023/07/19 03:27:50;;;;;;;5.37;3.27;;;14.80;1.00;;;;;;4994024;28;20484;-56
2023/07/19 03:30:15;;;;;;;6.53;3.00;;;14.80;99.90;;;;;;4993858;28;20548;-56
2023/07/19 03:32:41;;;;;;;6.30;3.50;;;14.80;1.00;;;;;;5008631;28;20473;-56
2023/07/19 03:35:07;;;;;;;4.17;3.40;;;14.70;1.00;;;;;;4994188;28;20199;-54
2023/07/19 03:37:36;;;;;;;3.53;3.10;;;14.70;99.90;;;;;;4993881;28;20263;-55
2023/07/19 03:40:04;;;;;;;12.20;3.67;;;14.80;8.40;;;;;;4993966;28;20430;-55
2023/07/19 03:42:29;;;;;;;7.70;3.50;;;14.80;99.90;;;;;;4994168;28;20418;-56
2023/07/19 03:44:55;;;;;;;4.93;3.10;;;14.70;99.90;;;;;;4994041;28;20441;-55
2023/07/19 03:47:21;;;;;;;4.53;3.50;;;14.70;1.00;;;;;;4993957;28;20308;-55
2023/07/19 03:49:46;;;;;;;3.77;3.40;;;14.70;99.90;;;;;;4993522;28;20233;-55
2023/07/19 03:52:12;;;;;;;3.80;3.33;;;14.70;99.90;;;;;;4993339;28;20191;-56
2023/07/19 03:54:37;;;;;;;5.13;3.20;;;14.70;99.90;;;;;;4993096;28;20254;-56
2023/07/19 03:57:03;;;;;;;3.67;3.27;;;14.70;1.00;;;;;;4993524;28;20258;-56
2023/07/19 03:59:30;;;;;;;6.60;3.00;;;14.70;99.90;;;;;;4994062;28;20195;-56
2023/07/19 04:01:55;;;;;;;4.70;2.93;;;14.70;99.90;;;;;;4993414;28;20438;-56
2023/07/19 04:04:21;;;;;;;4.00;2.90;;;14.70;82.80;;;;;;4993361;28;20770;-54
2023/07/19 04:06:46;;;;;;;5.20;2.63;;;14.70;99.90;;;;;;4993556;28;20223;-56
2023/07/19 04:09:12;;;;;;;7.00;2.90;;;14.60;99.90;;;;;;4993044;28;20218;-55
2023/07/19 04:11:38;;;;;;;7.70;3.10;;;14.50;99.90;;;;;;4992598;28;20208;-55
2023/07/19 04:14:03;;;;;;;10.10;3.00;;;14.50;99.90;;;;;;4993033;28;20181;-57
2023/07/19 04:16:29;;;;;;;3.40;2.30;;;14.50;1.00;;;;;;4993268;28;20638;-57
2023/07/19 04:18:54;;;;;;;5.57;2.57;;;14.50;1.00;;;;;;4993523;28;20186;-56
2023/07/19 04:21:21;;;;;;;4.97;2.40;;;14.50;54.00;;;;;;4993273;28;20195;-56
2023/07/19 04:23:46;;;;;;;3.23;2.60;;;14.50;99.90;;;;;;4993312;28;20197;-55
2023/07/19 04:26:12;;;;;;;4.43;3.27;;;14.50;16.30;;;;;;4992768;28;20411;-56
2023/07/19 04:28:37;;;;;;;2.77;2.50;;;14.50;99.90;;;;;;4992995;28;20209;-55
2023/07/19 04:31:03;;;;;;;2.63;2.30;;;14.50;22.30;;;;;;4991461;28;20218;-56
2023/07/19 04:33:30;;;;;;;4.10;2.37;;;14.50;99.90;;;;;;4993144;28;20206;-57
2023/07/19 04:35:56;;;;;;;3.20;2.30;;;14.50;99.90;;;;;;4993031;28;20191;-57
2023/07/19 04:38:21;;;;;;;4.87;2.43;;;14.50;99.90;;;;;;4992744;28;20513;-56
2023/07/19 04:40:47;;;;;;;4.23;2.23;;;14.50;10.00;;;;;;4992988;28;20196;-54
2023/07/19 04:43:13;;;;;;;3.37;2.60;;;14.50;99.90;;;;;;4992823;28;20274;-58
2023/07/19 04:45:38;;;;;;;4.07;2.63;;;14.50;1.00;;;;;;4993059;28;20218;-56
2023/07/19 04:48:04;;;;;;;4.90;2.70;;;14.50;1.00;;;;;;4992395;28;20183;-55
2023/07/19 04:50:29;;;;;;;4.00;2.63;;;14.50;1.00;;;;;;4992796;28;20211;-55
2023/07/19 04:52:55;;;;;;;5.90;2.43;;;14.50;1.00;;;;;;4992657;28;20192;-55
2023/07/19 04:55:21;;;;;;;2.87;2.17;;;14.50;1.00;;;;;;4992315;28;20256;-55
2023/07/19 04:57:47;;;;;;;3.30;3.00;;;14.60;1.00;;;;;;4992704;28;20229;-56
2023/07/19 05:00:14;;;;;;;5.30;3.40;;;14.60;99.90;;;;;;4992840;28;20984;-56
2023/07/19 05:02:40;;;;;;;7.50;3.80;;;14.70;99.90;;;;;;4992534;28;20183;-57
2023/07/19 05:05:07;;;;;;;7.10;3.80;;;14.70;99.90;;;;;;4992620;28;20428;-57
2023/07/19 05:07:36;;;;;;;3.67;3.30;;;14.70;76.80;;;;;;4992458;28;20756;-55
2023/07/19 05:10:03;;;;;;;7.40;4.23;;;14.80;1.00;;;;;;4992052;28;20423;-56
2023/07/19 05:12:30;;;;;;;4.77;3.33;;;14.70;51.80;;;;;;4992123;28;20907;-55
2023/07/19 05:14:56;;;;;;;4.30;3.90;;;14.70;99.90;;;;;;4992283;28;20918;-55
2023/07/19 05:17:22;;;;;;;5.27;3.80;;;14.70;27.90;;;;;;4992196;28;20902;-55
2023/07/19 05:19:47;;;;;;;4.40;4.00;;;14.60;1.00;;;;;;4992185;28;20429;-56
2023/07/19 05:22:13;;;;;;;4.30;3.70;;;14.60;1.00;;;;;;4992612;28;20174;-54
2023/07/19 05:24:40;;;;;;;7.10;3.60;;;14.50;1.00;;;;;;4992206;28;20179;-55
2023/07/19 05:27:06;;;;;;;4.40;3.60;;;14.50;85.70;;;;;;4992457;28;20197;-55
2023/07/19 05:29:32;;;;;;;4.20;3.70;;;14.50;99.90;;;;;;5006907;28;20434;-55
2023/07/19 05:31:58;;;;;;;10.83;3.90;;;14.40;99.90;;;;;;4991751;28;20226;-55
2023/07/19 05:34:24;;;;;;;5.37;3.47;;;14.40;1.00;;;;;;4991990;28;20423;-56
2023/07/19 05:36:50;;;;;;;7.63;3.70;;;14.40;1.30;;;;;;4992257;28;21000;-56
2023/07/19 05:39:15;;;;;;;3.73;3.33;;;14.40;10.40;;;;;;4991249;28;20215;-56
2023/07/19 05:41:41;;;;;;;5.70;3.50;;;14.40;99.90;;;;;;4991892;28;20237;-57
2023/07/19 05:44:07;;;;;;;3.73;3.43;;;14.50;22.80;;;;;;4992085;28;20193;-54
2023/07/19 05:46:38;;;;;;;3.40;2.90;;;14.50;22.70;;;;;;4991909;28;20194;-55
2023/07/19 05:49:04;;;;;;;3.70;3.37;;;14.50;71.60;;;;;;4992106;28;20528;-55
2023/07/19 05:51:30;;;;;;;4.60;3.20;;;14.50;1.00;;;;;;4991546;28;20502;-56
2023/07/19 05:53:55;;;;;;;3.70;3.20;;;14.50;50.60;;;;;;4991322;28;20264;-57
2023/07/19 05:56:21;;;;;;;5.10;3.10;;;14.50;99.90;;;;;;4991557;28;20185;-56
2023/07/19 05:58:47;;;;;;;3.70;3.40;;;14.50;99.90;;;;;;4991417;28;20183;-54
2023/07/19 06:01:17;;;;;;;5.77;3.30;;;14.60;1.00;;;;;;4991787;28;20523;-55
2023/07/19 06:03:43;;;;;;;4.20;2.63;;;14.60;99.90;;;;;;4991669;28;20279;-54
2023/07/19 06:06:09;;;;;;;6.40;4.03;;;14.60;1.00;;;;;;4991424;28;20423;-55
2023/07/19 06:08:34;;;;;;;7.20;3.00;;;14.60;99.90;;;;;;4991380;28;20430;-52
2023/07/19 06:11:00;;;;;;;5.20;3.30;;;14.60;27.10;;;;;;4991645;28;20666;-54
2023/07/19 06:13:25;;;;;;;3.50;3.20;;;14.60;99.90;;;;;;4991024;28;20191;-56
2023/07/19 06:15:51;;;;;;;4.47;2.80;;;14.50;99.90;;;;;;4991556;28;20194;-55
2023/07/19 06:18:17;;;;;;;4.47;3.30;;;14.40;99.90;;;;;;4991236;28;20190;-56
2023/07/19 06:20:42;;;;;;;3.73;3.40;;;14.40;1.00;;;;;;4991644;28;20200;-54
2023/07/19 06:23:08;;;;;;;5.77;3.53;;;14.50;1.00;;;;;;4991090;28;20232;-54
2023/07/19 06:25:33;;;;;;;4.43;2.70;;;14.60;99.90;;;;;;4991572;28;20279;-55
2023/07/19 06:27:59;;;;;;;3.20;2.90;;;14.70;1.00;;;;;;4991563;28;20524;-56
2023/07/19 06:30:25;;;;;;;4.23;2.47;;;14.70;26.50;;;;;;4991045;28;20306;-56
2023/07/19 06:32:50;;;;;;;2.60;2.40;;;14.80;99.90;;;;;;4990793;28;20180;-55
2023/07/19 06:35:16;;;;;;;2.80;2.30;;;14.80;1.00;;;;;;4991404;28;20198;-55
2023/07/19 06:37:43;;;;;;;3.00;2.47;;;14.80;1.00;;;;;;4991051;28;20176;-55
2023/07/19 06:40:09;;;;;;;2.73;2.50;;;14.80;99.90;;;;;;4991531;28;20198;-55
2023/07/19 06:42:36;;;;;;;5.93;2.07;;;14.70;1.00;;;;;;4991295;28;20418;-56
2023/07/19 06:45:02;;;;;;;4.97;2.17;;;14.80;36.10;;;;;;4991451;28;20411;-56
2023/07/19 06:47:28;;;;;;;3.50;2.43;;;14.70;99.90;;;;;;4991482;28;20906;-56
2023/07/19 06:49:54;;;;;;;2.40;2.20;;;14.70;19.30;;;;;;4991322;28;20191;-55
2023/07/19 06:52:20;;;;;;;2.30;2.17;;;14.80;1.00;;;;;;4992411;28;20422;-56
2023/07/19 06:54:45;;;;;;;3.17;2.13;;;14.80;1.00;;;;;;4994143;28;20555;-56
2023/07/19 06:57:11;;;;;;;3.23;2.30;;;14.80;99.90;;;;;;4994473;28;20241;-55
2023/07/19 06:59:37;;;;;;;3.17;2.57;;;14.90;99.90;;;;;;4994388;28;20185;-55
2023/07/19 07:02:02;;;;;;;3.27;2.23;;;15.00;99.90;;;;;;4994691;28;20233;-54
2023/07/19 07:04:28;;;;;;;4.93;2.33;;;15.10;62.00;;;;;;4994588;28;20517;-55
2023/07/19 07:06:54;;;;;;;1.90;1.77;;;15.10;1.00;;;;;;4994048;28;20180;-57
2023/07/19 07:09:19;;;;;;;3.93;2.17;;;15.20;64.70;;;;;;4994237;28;20198;-55
2023/07/19 07:11:45;;;;;;;2.27;1.93;;;15.40;1.00;;;;;;4993752;28;20211;-55
2023/07/19 07:14:10;;;;;;;2.53;2.33;;;15.50;1.00;;;;;;4994166;28;20184;-55
2023/07/19 07:16:36;;;;;;;2.70;2.10;;;15.70;1.00;;;;;;4993760;28;20646;-55
2023/07/19 07:19:02;;;;;;;2.33;2.10;;;15.90;99.90;;;;;;4993900;28;20176;-57
2023/07/19 07:21:27;;;;;;;2.53;1.93;;;16.10;1.00;;;;;;4993761;28;20648;-56
2023/07/19 07:23:53;;;;;;;3.10;2.00;;;16.20;1.00;;;;;;4994124;28;20433;-55
2023/07/19 07:26:19;;;;;;;3.97;2.27;;;16.30;1.00;;;;;;4994036;28;20191;-55
2023/07/19 07:28:45;;;;;;;2.17;2.03;;;16.50;99.90;;;;;;4993656;28;20188;-55
2023/07/19 07:31:11;;;;;;;3.17;1.80;;;16.60;1.00;;;;;;4992642;28;20485;-57
2023/07/19 07:33:38;;;;;;;2.90;1.73;;;16.70;1.00;;;;;;4992629;28;20704;-53
2023/07/19 07:36:04;;;;;;;2.67;2.10;;;16.70;1.00;;;;;;4993312;28;20829;-55
2023/07/19 07:38:30;;;;;;;4.70;1.87;;;16.80;99.90;;;;;;4992924;28;20436;-55
2023/07/19 07:41:05;;;;;;;2.33;2.10;;;16.90;99.90;;;;;;4992909;28;20238;-55
2023/07/19 07:43:31;;;;;;;5.00;2.03;;;17.00;99.90;;;;;;4993059;28;20228;-55
2023/07/19 07:45:57;;;;;;;3.60;2.03;;;17.10;99.90;;;;;;4993629;28;20481;-55
2023/07/19 07:48:23;;;;;;;3.70;1.80;;;17.10;99.90;;;;;;4993831;28;20885;-55
2023/07/19 07:50:51;;;;;;;4.50;1.60;;;17.10;97.10;;;;;;4993544;28;20472;-56
2023/07/19 07:53:18;;;;;;;2.30;1.80;;;17.20;99.90;;;;;;4993679;28;20510;-56
2023/07/19 07:55:43;;;;;;;2.90;1.50;;;17.20;99.90;;;;;;4992938;28;20475;-56
2023/07/19 07:58:10;;;;;;;2.83;1.70;;;17.20;99.90;;;;;;4993772;28;20716;-55
2023/07/19 08:00:36;;;;;;;1.80;1.60;;;17.20;99.90;;;;;;4993288;28;20191;-56
2023/07/19 08:03:01;;;;;;;2.50;1.57;;;17.40;99.90;;;;;;4992921;28;20416;-57
2023/07/19 08:05:27;;;;;;;2.77;1.47;;;17.60;99.90;;;;;;4993056;28;20196;-56
2023/07/19 08:07:52;;;;;;;3.10;1.53;;;17.80;99.90;;;;;;4993064;28;20185;-56
2023/07/19 08:10:18;;;;;;;3.53;1.70;;;18.00;75.50;;;;;;4993406;28;20683;-54
2023/07/19 08:12:44;;;;;;;2.23;1.40;;;18.20;19.50;;;;;;4993189;28;20261;-56
2023/07/19 08:15:09;;;;;;;1.77;1.30;;;18.30;1.00;;;;;;4993256;28;20183;-56
2023/07/19 08:17:35;;;;;;;1.63;1.40;;;18.40;1.00;;;;;;4993313;28;20188;-56
2023/07/19 08:20:01;;;;;;;4.93;1.80;;;18.60;1.00;;;;;;4993204;28;20184;-55
2023/07/19 08:22:27;;;;;;;2.20;1.50;;;18.80;1.00;;;;;;4993466;28;20283;-55
2023/07/19 08:24:53;;;;;;;5.57;1.80;;;18.80;1.00;;;;;;4993488;28;20195;-55
2023/07/19 08:27:19;;;;;;;2.30;1.50;;;18.70;1.00;;;;;;4993127;28;20415;-55
2023/07/19 08:29:45;;;;;;;3.50;2.00;;;18.70;1.00;;;;;;4993041;28;20418;-55
2023/07/19 08:32:11;;;;;;;2.00;1.60;;;18.60;1.00;;;;;;4992600;28;20252;-55
2023/07/19 08:34:36;;;;;;;3.00;1.70;;;18.60;1.00;;;;;;4992715;28;20483;-55
2023/07/19 08:37:02;;;;;;;3.10;1.20;;;18.50;1.00;;;;;;4992941;28;20275;-55
2023/07/19 08:39:28;;;;;;;3.40;1.50;;;18.50;1.00;;;;;;4992863;28;20639;-55
2023/07/19 08:41:53;;;;;;;2.13;1.57;;;18.50;1.00;;;;;;4992889;28;20200;-55
2023/07/19 08:44:22;;;;;;;1.70;1.23;;;18.70;1.00;;;;;;4992699;28;20599;-55
2023/07/19 08:46:49;;;;;;;3.90;1.70;;;18.60;1.00;;;;;;4992927;28;20237;-56
2023/07/19 08:49:18;;;;;;;6.23;1.70;;;18.60;1.00;;;;;;4992787;28;20415;-56
2023/07/19 08:51:45;;;;;;;1.53;1.30;;;18.60;1.00;;;;;;4992764;28;20561;-55
2023/07/19 08:54:11;;;;;;;3.40;1.70;;;18.80;1.00;;;;;;4992141;28;20989;-55
2023/07/19 08:56:37;;;;;;;2.27;1.50;;;18.80;1.00;;;;;;4992345;28;20419;-55
2023/07/19 08:59:03;;;;;;;1.87;1.47;;;18.70;1.00;;;;;;4992669;28;20520;-55
2023/07/19 09:01:29;;;;;;;2.53;1.60;;;18.80;1.00;;;;;;4992513;28;20505;-55
2023/07/19 09:03:54;;;;;;;1.70;1.53;;;18.80;1.00;;;;;;4992812;28;20235;-55
2023/07/19 09:06:29;;;;;;;1.70;1.60;;;19.20;1.00;;;;;;4992559;28;20214;-55
2023/07/19 09:08:56;;;;;;;3.67;1.47;;;20.00;1.00;;;;;;4992099;28;20189;-55
2023/07/19 09:11:22;;;;;;;1.90;1.37;;;20.60;1.00;;;;;;4992323;28;20511;-55
2023/07/19 09:13:56;;;;;;;3.07;1.20;;;20.80;1.00;;;;;;4992070;28;20475;-56
2023/07/19 09:16:30;;;;;;;1.97;1.23;;;20.80;1.00;;;;;;4992074;28;20423;-55
2023/07/19 09:19:00;;;;;;;1.30;1.20;;;21.40;1.00;;;;;;4992533;28;20480;-55
2023/07/19 09:21:46;;;;;;;3.30;1.30;;;22.10;1.00;;;;;;4992360;28;20521;-56
2023/07/19 09:24:14;;;;;;;1.17;1.03;;;23.10;1.00;;;;;;4992279;28;20444;-56
2023/07/19 09:26:50;;;;;;;2.03;1.43;;;23.10;1.00;;;;;;4992428;28;20423;-55
2023/07/19 09:29:17;;;;;;;3.60;1.50;;;22.70;1.00;;;;;;4992153;28;20438;-55
2023/07/19 09:31:55;;;;;;;1.50;1.27;;;22.60;1.00;;;;;;4992020;28;20474;-55
2023/07/19 09:34:29;;;;;;;1.33;1.20;;;23.00;1.00;;;;;;4992430;28;20427;-55
2023/07/19 09:36:55;;;;;;;1.70;1.00;;;23.60;1.00;;;;;;4991966;28;20817;-54
2023/07/19 09:39:24;;;;;;;1.67;1.07;;;23.20;1.00;;;;;;4992232;28;20430;-55
2023/07/19 09:41:51;;;;;;;2.13;1.20;;;22.50;1.00;;;;;;4992132;28;20428;-54
2023/07/19 09:44:17;;;;;;;1.77;1.33;;;22.50;1.00;;;;;;4991720;28;20431;-54
2023/07/19 09:46:44;;;;;;;1.93;1.50;;;23.20;1.00;;;;;;4991539;28;20469;-54
2023/07/19 09:49:10;;;;;;;2.30;1.40;;;23.90;1.00;;;;;;4991809;28;20223;-54
2023/07/19 09:51:40;;;;;;;2.37;1.43;;;23.70;1.00;;;;;;4991396;28;20459;-54
2023/07/19 09:54:14;;;;;;;1.30;1.20;;;22.90;1.00;;;;;;4991602;28;20475;-54
2023/07/19 09:56:41;;;;;;;2.90;2.17;;;22.10;1.00;;;;;;4991486;28;20468;-54
2023/07/19 09:59:13;;;;;;;3.43;1.80;;;21.50;1.00;;;;;;4991772;28;20508;-54
2023/07/19 10:01:40;;;;;;;1.60;1.23;;;22.00;1.00;;;;;;4991873;28;20407;-54
2023/07/19 10:04:45;;;;;;;2.30;1.57;;;22.80;1.00;;;;;;4991583;28;20902;-54
2023/07/19 10:07:21;;;;;;;2.80;1.50;;;23.00;1.00;;;;;;4991349;28;20970;-53
2023/07/19 10:09:50;;;;;;;1.70;1.60;;;22.90;1.00;;;;;;4991567;28;20443;-54
2023/07/19 10:12:15;;;;;;;3.23;1.60;;;23.00;1.00;;;;;;4991131;28;20846;-54
2023/07/19 10:15:03;;;;;;;4.40;1.70;;;24.00;1.00;;;;;;4991167;28;20429;-54
2023/07/19 10:17:29;;;;;;;2.80;1.53;;;25.00;1.00;;;;;;4991658;28;20196;-54
2023/07/19 10:20:08;;;;;;;1.70;1.60;;;25.40;1.00;;;;;;4991314;28;20935;-54
2023/07/19 10:23:03;;;;;;;2.03;1.80;;;24.80;1.00;;;;;;4991365;28;20458;-53
2023/07/19 10:25:31;;;;;;;2.23;1.70;;;24.00;1.00;;;;;;4991719;28;20454;-54
2023/07/19 10:28:00;;;;;;;3.70;1.83;;;24.10;1.00;;;;;;4994940;28;20428;-54
2023/07/19 10:30:44;;;;;;;3.30;1.77;;;23.80;1.00;;;;;;4994495;28;20460;-54
2023/07/19 10:33:13;;;;;;;3.33;2.00;;;23.20;1.00;;;;;;4994768;28;20423;-54
2023/07/19 10:35:39;;;;;;;2.70;1.70;;;22.90;1.00;;;;;;4994555;28;20423;-54
2023/07/19 10:38:12;;;;;;;1.70;1.60;;;22.80;1.00;;;;;;4994937;28;20424;-54
2023/07/19 10:40:37;;;;;;;4.93;1.57;;;22.60;1.00;;;;;;4994564;28;20860;-54
2023/07/19 10:43:03;;;;;;;2.77;1.90;;;22.60;1.00;;;;;;4994454;28;20523;-53
2023/07/19 10:45:29;;;;;;;6.80;2.10;;;23.10;1.00;;;;;;4995027;28;20185;-54
2023/07/19 10:47:59;;;;;;;5.03;2.03;;;23.20;1.00;;;;;;4994838;28;20189;-54
2023/07/19 10:50:25;;;;;;;2.67;2.27;;;23.10;1.00;;;;;;4994510;28;20475;-53
2023/07/19 10:52:51;;;;;;;3.83;2.17;;;22.70;1.00;;;;;;4994411;28;20423;-54
2023/07/19 10:55:16;;;;;;;4.83;2.33;;;22.40;1.00;;;;;;4994074;28;20235;-54
2023/07/19 10:57:42;;;;;;;5.20;2.93;;;22.70;1.00;;;;;;4994388;28;20420;-54
2023/07/19 11:00:12;;;;;;;3.10;2.67;;;23.20;1.00;;;;;;4994365;28;20549;-54
2023/07/19 11:02:41;;;;;;;3.30;3.00;;;23.20;1.00;;;;;;4994271;28;20689;-54
2023/07/19 11:05:09;;;;;;;3.50;2.40;;;23.10;1.00;;;;;;4993736;28;20483;-53
2023/07/19 11:07:35;;;;;;;3.53;2.40;;;23.20;1.00;;;;;;4994533;28;20490;-54
2023/07/19 11:10:05;;;;;;;4.63;2.50;;;23.20;1.00;;;;;;4994339;28;20430;-54
2023/07/19 11:12:31;;;;;;;3.97;2.40;;;22.70;99.90;;;;;;4993941;28;20431;-55
2023/07/19 11:15:00;;;;;;;3.33;2.33;;;22.20;99.90;;;;;;4994044;28;20423;-55
2023/07/19 11:17:28;;;;;;;5.73;3.00;;;21.90;1.00;;;;;;4993903;28;20915;-55
2023/07/19 11:19:53;;;;;;;5.63;3.40;;;21.80;1.00;;;;;;4993761;28;20506;-53
2023/07/19 11:22:24;;;;;;;3.70;2.63;;;21.70;1.00;;;;;;4993688;28;20942;-53
2023/07/19 11:24:52;;;;;;;5.93;3.27;;;21.50;99.90;;;;;;4993932;28;20280;-53
2023/07/19 11:27:18;;;;;;;6.80;3.23;;;21.60;1.00;;;;;;4994057;28;20412;-53
2023/07/19 11:29:49;;;;;;;5.30;3.70;;;21.40;1.00;;;;;;4993931;28;20451;-54
2023/07/19 11:32:18;;;;;;;4.30;3.50;;;21.30;1.00;;;;;;4993606;28;20467;-55
2023/07/19 11:34:45;;;;;;;7.37;3.77;;;21.10;1.00;;;;;;4993530;28;20430;-54
2023/07/19 11:37:30;;;;;;;5.40;3.80;;;20.90;1.00;;;;;;4992861;28;20878;-54
2023/07/19 11:39:59;;;;;;;6.10;3.60;;;20.80;1.00;;;;;;4993747;28;20462;-54
2023/07/19 11:42:45;;;;;;;5.17;3.20;;;20.70;1.00;;;;;;4994032;28;20434;-54
2023/07/19 11:45:15;;;;;;;5.00;3.37;;;20.80;1.00;;;;;;4993608;28;20516;-54
2023/07/19 11:47:42;;;;;;;5.77;3.27;;;21.10;1.00;;;;;;4993741;28;20410;-54
2023/07/19 11:50:09;;;;;;;8.77;3.77;;;21.50;1.00;;;;;;4993516;28;20471;-54
2023/07/19 11:52:46;;;;;;;7.60;3.23;;;22.30;1.00;;;;;;4993614;28;20464;-54
2023/07/19 11:55:16;;;;;;;11.27;3.43;;;23.60;1.00;;;;;;4993341;28;20565;-53
2023/07/19 11:57:44;;;;;;;4.67;3.50;;;24.10;99.90;;;;;;4993949;28;20424;-54
2023/07/19 12:00:11;;;;;;;4.40;2.97;;;23.90;99.90;;;;;;4993851;28;20423;-54
2023/07/19 12:02:37;;;;;;;5.67;3.00;;;23.80;99.90;;;;;;4993587;28;20454;-54
2023/07/19 12:05:04;;;;;;;8.33;3.00;;;23.70;99.90;;;;;;4993816;28;20416;-54
2023/07/19 12:07:31;;;;;;;3.17;2.87;;;23.60;99.90;;;;;;4993820;28;20412;-54
2023/07/19 12:09:57;;;;;;;4.10;3.20;;;23.30;99.90;;;;;;4993281;28;20423;-54
2023/07/19 12:12:23;;;;;;;4.23;3.47;;;23.00;1.00;;;;;;4993408;28;20521;-54
2023/07/19 12:14:48;;;;;;;4.07;3.27;;;22.40;99.90;;;;;;4993072;28;20492;-54
2023/07/19 12:17:14;;;;;;;7.17;2.90;;;22.00;99.90;;;;;;4993309;28;20180;-54
2023/07/19 12:19:40;;;;;;;4.03;3.10;;;21.80;99.90;;;;;;4992750;28;20189;-54
2023/07/19 12:22:05;;;;;;;5.37;3.10;;;21.70;99.90;;;;;;4993093;28;20188;-54
2023/07/19 12:24:31;;;;;;;4.80;2.90;;;21.70;1.00;;;;;;4992971;28;20557;-54
2023/07/19 12:26:56;;;;;;;3.47;2.97;;;21.80;1.00;;;;;;4993042;28;20237;-54
2023/07/19 12:29:25;;;;;;;3.80;3.20;;;21.70;1.00;;;;;;4993368;28;20185;-54
2023/07/19 12:31:51;;;;;;;5.10;3.13;;;21.70;99.90;;;;;;4992643;28;20223;-54
2023/07/19 12:34:17;;;;;;;11.13;3.60;;;21.50;99.90;;;;;;4993053;28;20846;-54
2023/07/19 12:36:43;;;;;;;2.97;2.77;;;21.20;1.00;;;;;;4992749;28;20796;-54
2023/07/19 12:39:09;;;;;;;4.60;3.40;;;21.10;1.00;;;;;;4993240;28;20521;-53
2023/07/19 12:41:34;;;;;;;3.23;2.87;;;21.00;1.00;;;;;;4992700;28;20195;-54
2023/07/19 12:44:00;;;;;;;5.07;3.37;;;21.00;1.00;;;;;;4992944;28;20217;-54
2023/07/19 12:46:25;;;;;;;3.13;2.83;;;20.90;1.00;;;;;;4992850;28;20239;-54
2023/07/19 12:48:51;;;;;;;4.33;3.10;;;21.10;1.00;;;;;;4991951;28;20235;-54
2023/07/19 12:51:19;;;;;;;4.60;3.53;;;21.20;1.00;;;;;;4992327;28;20213;-54